createdAt,value
2022-10-05T00:00:31.217Z,1.88
2022-10-05T00:05:40.522Z,1.92
2022-10-05T00:10:48.859Z,1.80
2022-10-05T00:16:09.378Z,1.77
2022-10-05T00:21:26.044Z,1.63
2022-10-05T00:26:40.327Z,1.50
2022-10-05T00:31:50.513Z,1.77
2022-10-05T00:37:12.999Z,1.90
2022-10-05T00:42:40.318Z,1.43
2022-10-05T00:48:03.160Z,1.87
2022-10-05T00:53:22.679Z,1.60
2022-10-05T00:59:00.251Z,1.60
2022-10-05T01:04:19.301Z,1.90
2022-10-05T01:15:32.946Z,1.50
2022-10-05T01:20:58.099Z,1.77
2022-10-05T01:26:20.975Z,1.53
2022-10-05T01:32:02.789Z,1.30
2022-10-05T01:37:18.827Z,1.50
2022-10-05T01:42:38.383Z,1.97
2022-10-05T01:47:53.295Z,1.83
2022-10-05T01:53:16.913Z,1.63
2022-10-05T01:58:56.420Z,1.43
2022-10-05T02:04:17.678Z,1.60
2022-10-05T02:09:40.823Z,1.60
2022-10-05T02:14:52.478Z,2.03
2022-10-05T02:20:13.307Z,1.60
2022-10-05T02:25:25.688Z,1.30
2022-10-05T02:36:37.514Z,1.87
2022-10-05T02:41:51.033Z,2.30
2022-10-05T02:47:08.260Z,1.80
2022-10-05T02:52:30.603Z,1.87
2022-10-05T02:57:44.853Z,2.07
2022-10-05T03:03:04.651Z,1.60
2022-10-05T03:08:37.478Z,1.50
2022-10-05T03:14:19.633Z,1.93
2022-10-05T03:19:59.317Z,1.63
2022-10-05T03:25:44.971Z,1.80
2022-10-05T03:31:25.375Z,1.60
2022-10-05T03:36:40.721Z,1.80
2022-10-05T03:42:12.407Z,1.90
2022-10-05T03:47:32.614Z,2.00
2022-10-05T03:52:49.439Z,2.23
2022-10-05T03:58:07.230Z,2.10
2022-10-05T04:03:27.006Z,2.60
2022-10-05T04:08:48.138Z,2.50
2022-10-05T04:14:06.668Z,2.23
2022-10-05T04:19:31.819Z,2.20
2022-10-05T04:25:00.928Z,2.13
2022-10-05T04:30:24.636Z,2.23
2022-10-05T04:35:44.005Z,2.00
2022-10-05T04:41:05.250Z,2.10
2022-10-05T04:46:48.466Z,2.10
2022-10-05T04:52:04.289Z,2.50
2022-10-05T04:57:37.149Z,2.47
2022-10-05T05:03:09.819Z,2.43
2022-10-05T05:08:36.576Z,2.70
2022-10-05T05:14:15.529Z,2.27
2022-10-05T05:19:45.980Z,4.00
2022-10-05T05:25:23.303Z,2.20
2022-10-05T05:30:42.396Z,2.70
2022-10-05T05:36:32.379Z,2.20
2022-10-05T05:41:57.816Z,2.43
2022-10-05T05:47:05.279Z,2.33
2022-10-05T05:52:22.579Z,2.60
2022-10-05T05:57:36.346Z,2.40
2022-10-05T06:02:54.482Z,2.70
2022-10-05T06:08:26.050Z,2.20
2022-10-05T06:13:41.116Z,2.63
2022-10-05T06:18:50.256Z,2.83
2022-10-05T06:24:06.397Z,2.43
2022-10-05T06:29:23.181Z,2.50
2022-10-05T06:34:58.642Z,2.30
2022-10-05T06:40:20.078Z,2.40
2022-10-05T06:45:42.587Z,2.22
2022-10-05T06:51:04.589Z,2.90
2022-10-05T06:56:20.453Z,2.40
2022-10-05T07:01:55.572Z,2.15
2022-10-05T07:07:07.706Z,2.22
2022-10-05T07:13:03.918Z,2.08
2022-10-05T07:18:39.232Z,2.47
2022-10-05T07:24:12.442Z,2.60
2022-10-05T07:29:45.542Z,2.03
2022-10-05T07:35:02.166Z,2.60
2022-10-05T07:40:23.595Z,2.53
2022-10-05T07:45:43.446Z,2.17
2022-10-05T07:51:02.281Z,2.40
2022-10-05T07:56:24.471Z,2.60
2022-10-05T08:01:39.613Z,2.88
2022-10-05T08:06:57.181Z,2.58
2022-10-05T08:12:23.426Z,2.60
2022-10-05T08:17:51.103Z,2.22
2022-10-05T08:23:02.012Z,2.85
2022-10-05T08:28:33.713Z,2.28
2022-10-05T08:33:55.824Z,2.30
2022-10-05T08:39:15.212Z,2.65
2022-10-05T08:44:58.009Z,2.80
2022-10-05T08:50:29.116Z,2.65
2022-10-05T08:56:28.659Z,2.30
2022-10-05T09:01:55.817Z,2.50
2022-10-05T09:07:45.684Z,2.50
2022-10-05T09:13:29.926Z,2.38
2022-10-05T09:19:14.469Z,2.10
2022-10-05T09:24:51.164Z,2.60
2022-10-05T09:30:25.781Z,2.70
2022-10-05T09:36:15.570Z,8.68
2022-10-05T09:42:00.045Z,4.47
2022-10-05T09:48:03.209Z,6.57
2022-10-05T09:53:49.783Z,6.00
2022-10-05T09:59:53.784Z,4.05
2022-10-05T10:05:37.204Z,2.45
2022-10-05T10:11:21.643Z,2.45
2022-10-05T10:17:21.179Z,2.33
2022-10-05T10:23:10.364Z,2.65
2022-10-05T10:28:52.835Z,2.10
2022-10-05T10:34:46.034Z,2.10
2022-10-05T10:40:16.321Z,2.15
2022-10-05T10:45:43.466Z,2.53
2022-10-05T10:51:22.414Z,2.47
2022-10-05T10:56:56.204Z,1.70
2022-10-05T11:02:23.286Z,2.00
2022-10-05T11:07:55.788Z,2.10
2022-10-05T11:13:30.388Z,1.70
2022-10-05T11:18:58.916Z,1.70
2022-10-05T11:24:43.971Z,1.80
2022-10-05T11:30:48.845Z,1.63
2022-10-05T11:36:51.421Z,1.60
2022-10-05T11:42:38.868Z,2.03
2022-10-05T11:48:11.617Z,1.67
2022-10-05T11:59:13.656Z,3.13
2022-10-05T12:04:30.103Z,2.13
2022-10-05T12:10:02.445Z,1.77
2022-10-05T12:15:25.777Z,1.60
2022-10-05T12:20:43.126Z,1.63
2022-10-05T12:26:00.462Z,1.70
2022-10-05T12:31:22.155Z,1.95
2022-10-05T12:37:02.615Z,2.25
2022-10-05T12:42:24.025Z,1.70
2022-10-05T12:47:50.313Z,1.85
2022-10-05T12:53:13.869Z,1.88
2022-10-05T12:58:38.249Z,1.90
2022-10-05T13:03:50.981Z,1.67
2022-10-05T13:14:56.908Z,1.60
2022-10-05T13:20:12.050Z,1.92
2022-10-05T13:25:46.953Z,1.58
2022-10-05T13:31:12.492Z,1.67
2022-10-05T13:36:27.735Z,1.83
2022-10-05T13:41:44.024Z,1.33
2022-10-05T13:47:04.922Z,1.48
2022-10-05T13:52:34.355Z,1.60
2022-10-05T13:58:02.645Z,1.40
2022-10-05T14:03:47.560Z,1.50
2022-10-05T14:08:55.671Z,1.40
2022-10-05T14:14:19.139Z,1.50
2022-10-05T14:20:09.417Z,1.50
2022-10-05T14:25:20.684Z,1.33
2022-10-05T14:30:38.423Z,2.10
2022-10-05T14:36:01.740Z,1.40
2022-10-05T14:41:31.273Z,1.40
2022-10-05T14:47:03.391Z,1.15
2022-10-05T14:52:36.799Z,1.30
2022-10-05T14:57:59.958Z,0.90
2022-10-05T15:03:24.183Z,1.25
2022-10-05T15:08:52.001Z,1.38
2022-10-05T15:14:28.942Z,1.50
2022-10-05T15:19:56.641Z,1.30
2022-10-05T15:25:23.751Z,1.13
2022-10-05T15:30:29.037Z,1.13
2022-10-05T15:36:23.092Z,1.65
2022-10-05T15:42:09.432Z,1.20
2022-10-05T15:47:32.769Z,1.50
2022-10-05T15:52:50.673Z,1.17
2022-10-05T15:58:16.583Z,1.30
2022-10-05T16:03:41.517Z,1.20
2022-10-05T16:09:10.461Z,1.60
2022-10-05T16:14:59.287Z,1.40
2022-10-05T16:20:30.200Z,1.52
2022-10-05T16:25:57.517Z,1.30
2022-10-05T16:31:10.877Z,1.70
2022-10-05T16:36:34.943Z,1.80
2022-10-05T16:41:52.520Z,2.63
2022-10-05T16:47:12.035Z,2.13
2022-10-05T16:52:26.935Z,5.80
2022-10-05T16:57:39.012Z,8.23
2022-10-05T17:03:05.966Z,5.72
2022-10-05T17:08:45.838Z,5.47
2022-10-05T17:14:48.489Z,3.33
2022-10-05T17:20:22.388Z,2.03
2022-10-05T17:25:46.280Z,2.28
2022-10-05T17:30:54.553Z,2.20
2022-10-05T17:36:26.824Z,1.95
2022-10-05T17:42:35.571Z,2.20
2022-10-05T17:48:01.883Z,2.55
2022-10-05T17:53:55.635Z,2.75
2022-10-05T18:04:54.210Z,2.50
2022-10-05T18:10:29.306Z,2.58
2022-10-05T18:15:49.492Z,2.70
2022-10-05T18:21:30.293Z,2.60
2022-10-05T18:26:51.248Z,2.60
2022-10-05T18:32:09.377Z,2.47
2022-10-05T18:37:32.339Z,2.47
2022-10-05T18:42:57.242Z,2.42
2022-10-05T18:48:32.822Z,2.20
2022-10-05T18:53:51.677Z,2.40
2022-10-05T18:59:14.817Z,2.25
2022-10-05T19:10:15.448Z,2.33
2022-10-05T19:15:51.890Z,2.17
2022-10-05T19:21:12.815Z,2.20
2022-10-05T19:26:33.413Z,2.38
2022-10-05T19:31:56.079Z,2.10
2022-10-05T19:37:10.709Z,2.20
2022-10-05T19:42:33.438Z,1.85
2022-10-05T19:47:55.073Z,2.00
2022-10-05T19:53:18.476Z,2.15
2022-10-05T19:58:29.512Z,2.72
2022-10-05T20:03:39.212Z,1.92
2022-10-05T20:08:46.709Z,2.42
2022-10-05T20:14:22.886Z,2.83
2022-10-05T20:19:57.677Z,2.58
2022-10-05T20:25:11.473Z,2.28
2022-10-05T20:30:31.470Z,2.80
2022-10-05T20:35:37.697Z,2.50
2022-10-05T20:40:47.002Z,3.10
2022-10-05T20:45:54.515Z,2.65
2022-10-05T20:51:08.794Z,3.08
2022-10-05T20:56:22.078Z,2.53
2022-10-05T21:01:38.407Z,2.60
2022-10-05T21:06:44.580Z,2.58
2022-10-05T21:11:55.099Z,2.70
2022-10-05T21:17:11.428Z,2.40
2022-10-05T21:22:19.864Z,2.22
2022-10-05T21:27:30.129Z,2.08
2022-10-05T21:32:47.671Z,1.75
2022-10-05T21:38:02.352Z,1.95
2022-10-05T21:43:17.960Z,2.05
2022-10-05T21:48:23.933Z,2.90
2022-10-05T21:53:40.142Z,2.22
2022-10-05T21:58:58.641Z,2.30
2022-10-05T22:04:22.260Z,2.35
2022-10-05T22:09:29.639Z,2.65
2022-10-05T22:14:38.953Z,2.00
2022-10-05T22:19:48.518Z,1.92
2022-10-05T22:24:57.594Z,2.00
2022-10-05T22:30:08.886Z,2.28
2022-10-05T22:35:18.339Z,2.03
2022-10-05T22:40:29.204Z,2.05
2022-10-05T22:45:46.780Z,2.30
2022-10-05T22:51:01.218Z,2.17
2022-10-05T22:56:13.955Z,2.28
2022-10-05T23:01:25.440Z,2.00
2022-10-05T23:06:42.928Z,2.15
2022-10-05T23:11:55.176Z,2.65
2022-10-05T23:17:03.408Z,2.70
2022-10-05T23:22:10.781Z,2.25
2022-10-05T23:27:33.023Z,1.90
2022-10-05T23:32:48.840Z,2.00
2022-10-05T23:38:19.174Z,2.00
2022-10-05T23:43:41.480Z,2.00
2022-10-05T23:48:51.966Z,2.22
2022-10-05T23:53:58.682Z,2.30
2022-10-05T23:59:06.322Z,2.15
